Anklam Airport


Codes: EDCA/
Name: Anklam Airport
City: Anklam
Country: Germany
Elevation: 16 ft.

Photos at Anklam Airport


   Photos courtesy of SpottingLog. You can add your own sightings and photos by signing up for a free trial today.



No photos found.

Weather at Anklam Airport


Time (UTC)DescriptionTempratureWindCloud coverageVisibilityPressureHumidity
26-Jun-2024 00:00Scattered Clouds16°C4 mph, SE45%10000m1017hPa86%
26-Jun-2024 03:00Scattered Clouds15°C7 mph, E32%10000m1017hPa88%
26-Jun-2024 06:00Few Clouds19°C7 mph, SE19%10000m1016hPa76%
26-Jun-2024 09:00Few Clouds25°C9 mph, SE14%10000m1015hPa52%
26-Jun-2024 12:00Few Clouds28°C7 mph, E16%10000m1014hPa44%
26-Jun-2024 15:00Few Clouds27°C11 mph, NE11%10000m1013hPa49%
26-Jun-2024 18:00Clear Sky22°C9 mph, NE9%10000m1012hPa74%
26-Jun-2024 21:00Clear Sky18°C7 mph, NE0%10000m1012hPa87%
27-Jun-2024 00:00Scattered Clouds19°C7 mph, SE34%10000m1011hPa83%
27-Jun-2024 03:00Overcast Clouds19°C4 mph, SE100%10000m1011hPa78%
27-Jun-2024 06:00Overcast Clouds23°C7 mph, E85%10000m1010hPa67%
27-Jun-2024 09:00Broken Clouds28°C7 mph, SE73%10000m1010hPa50%
27-Jun-2024 12:00Broken Clouds31°C9 mph, SE76%10000m1008hPa39%
27-Jun-2024 15:00Broken Clouds31°C7 mph, S56%10000m1008hPa41%
27-Jun-2024 18:00Broken Clouds27°C7 mph, E63%10000m1006hPa66%
27-Jun-2024 21:00Light Rain21°C13 mph, SE53%9379m1007hPa87%
28-Jun-2024 00:00Moderate Rain19°C7 mph, S73%10000m1007hPa96%
28-Jun-2024 03:00Overcast Clouds19°C9 mph, W100%10000m1008hPa95%
28-Jun-2024 06:00Overcast Clouds21°C7 mph, W87%10000m1009hPa86%
28-Jun-2024 09:00Light Rain23°C16 mph, W66%10000m1011hPa78%
28-Jun-2024 12:00Light Rain24°C16 mph, W71%10000m1013hPa53%
28-Jun-2024 15:00Broken Clouds23°C13 mph, W82%10000m1015hPa48%
28-Jun-2024 18:00Overcast Clouds20°C9 mph, NW93%10000m1017hPa69%
28-Jun-2024 21:00Overcast Clouds15°C4 mph, W90%10000m1019hPa87%
29-Jun-2024 00:00Broken Clouds13°C4 mph, W81%10000m1020hPa95%
29-Jun-2024 03:00Clear Sky11°C4 mph, SW2%10000m1020hPa95%
29-Jun-2024 06:00Clear Sky16°C4 mph, SW10%10000m1020hPa72%
29-Jun-2024 09:00Broken Clouds21°C4 mph, SW58%10000m1019hPa58%
29-Jun-2024 12:00Scattered Clouds25°C7 mph, S45%10000m1017hPa46%
29-Jun-2024 15:00Scattered Clouds26°C7 mph, SE28%10000m1014hPa45%
29-Jun-2024 18:00Scattered Clouds20°C11 mph, SE45%10000m1012hPa72%
29-Jun-2024 21:00Scattered Clouds17°C11 mph, E37%10000m1010hPa80%
30-Jun-2024 00:00Light Rain17°C7 mph, E36%10000m1007hPa93%
30-Jun-2024 03:00Light Rain18°C7 mph, E100%10000m1004hPa95%
30-Jun-2024 06:00Moderate Rain20°C4 mph, SW100%10000m1003hPa95%
30-Jun-2024 09:00Broken Clouds27°C16 mph, SW72%10000m1002hPa67%
30-Jun-2024 12:00Broken Clouds28°C18 mph, SW56%10000m1002hPa55%
30-Jun-2024 15:00Light Rain25°C18 mph, SW61%10000m1003hPa68%
30-Jun-2024 18:00Light Rain18°C13 mph, W57%10000m1005hPa86%
30-Jun-2024 21:00Broken Clouds16°C7 mph, W81%10000m1007hPa90%